sensor_id;sensor_type;location;lat;lon;timestamp;pressure;altitude;pressure_sealevel;temperature;humidity
46942;BME280;32676;52.630;4.896;2022-12-07T00:01:31;101668.91;;;5.42;79.43
46942;BME280;32676;52.630;4.896;2022-12-07T00:04:00;101687.19;;;5.48;79.46
46942;BME280;32676;52.630;4.896;2022-12-07T00:06:30;101688.91;;;5.49;79.06
46942;BME280;32676;52.630;4.896;2022-12-07T00:08:56;101680.22;;;5.47;78.99
46942;BME280;32676;52.630;4.896;2022-12-07T00:11:23;101695.00;;;5.49;78.84
46942;BME280;32676;52.630;4.896;2022-12-07T00:13:51;101678.50;;;5.46;78.72
46942;BME280;32676;52.630;4.896;2022-12-07T00:16:20;101667.19;;;5.42;78.62
46942;BME280;32676;52.630;4.896;2022-12-07T00:18:47;101652.41;;;5.39;78.83
46942;BME280;32676;52.630;4.896;2022-12-07T00:21:17;101636.78;;;5.35;78.73
46942;BME280;32676;52.630;4.896;2022-12-07T00:23:45;101603.72;;;5.17;78.91
46942;BME280;32676;52.630;4.896;2022-12-07T00:26:14;101612.44;;;5.28;78.77
46942;BME280;32676;52.630;4.896;2022-12-07T00:28:42;101607.19;;;5.25;78.82
46942;BME280;32676;52.630;4.896;2022-12-07T00:31:12;101626.34;;;5.33;78.82
46942;BME280;32676;52.630;4.896;2022-12-07T00:33:39;101647.19;;;5.35;78.42
46942;BME280;32676;52.630;4.896;2022-12-07T00:36:08;101670.69;;;5.44;78.33
46942;BME280;32676;52.630;4.896;2022-12-07T00:38:37;101684.56;;;5.46;78.31
46942;BME280;32676;52.630;4.896;2022-12-07T00:41:05;101704.56;;;5.52;78.20
46942;BME280;32676;52.630;4.896;2022-12-07T00:43:32;101715.03;;;5.55;78.38
46942;BME280;32676;52.630;4.896;2022-12-07T00:45:59;101723.72;;;5.57;78.49
46942;BME280;32676;52.630;4.896;2022-12-07T00:48:26;101735.88;;;5.61;78.51
46942;BME280;32676;52.630;4.896;2022-12-07T00:50:53;101747.16;;;5.62;78.48
46942;BME280;32676;52.630;4.896;2022-12-07T00:53:20;101741.06;;;5.58;78.72
46942;BME280;32676;52.630;4.896;2022-12-07T00:55:48;101746.31;;;5.61;78.72
46942;BME280;32676;52.630;4.896;2022-12-07T00:58:14;101762.84;;;5.66;79.08
46942;BME280;32676;52.630;4.896;2022-12-07T01:00:42;101777.63;;;5.70;79.03
46942;BME280;32676;52.630;4.896;2022-12-07T01:03:11;101775.88;;;5.69;79.20
46942;BME280;32676;52.630;4.896;2022-12-07T01:05:38;101768.94;;;5.68;79.30
46942;BME280;32676;52.630;4.896;2022-12-07T01:08:05;101774.16;;;5.68;79.30
46942;BME280;32676;52.630;4.896;2022-12-07T01:10:32;101776.75;;;5.70;79.50
46942;BME280;32676;52.630;4.896;2022-12-07T01:13:00;101763.69;;;5.65;79.53
46942;BME280;32676;52.630;4.896;2022-12-07T01:15:26;101774.16;;;5.68;79.79
46942;BME280;32676;52.630;4.896;2022-12-07T01:17:53;101768.91;;;5.67;80.00
46942;BME280;32676;52.630;4.896;2022-12-07T01:20:20;101759.34;;;5.63;79.91
46942;BME280;32676;52.630;4.896;2022-12-07T01:22:46;101741.09;;;5.61;79.98
46942;BME280;32676;52.630;4.896;2022-12-07T01:25:13;101741.94;;;5.60;80.14
46942;BME280;32676;52.630;4.896;2022-12-07T01:27:39;101732.38;;;5.57;80.18
46942;BME280;32676;52.630;4.896;2022-12-07T01:30:10;101702.81;;;5.51;80.24
46942;BME280;32676;52.630;4.896;2022-12-07T01:32:36;101685.44;;;5.47;80.32
46942;BME280;32676;52.630;4.896;2022-12-07T01:35:04;101681.97;;;5.48;80.45
46942;BME280;32676;52.630;4.896;2022-12-07T01:37:34;101675.88;;;5.47;80.57
46942;BME280;32676;52.630;4.896;2022-12-07T01:40:00;101688.91;;;5.49;80.58
46942;BME280;32676;52.630;4.896;2022-12-07T01:42:27;101687.19;;;5.48;80.65
46942;BME280;32676;52.630;4.896;2022-12-07T01:47:56;101672.41;;;5.42;80.41
46942;BME280;32676;52.630;4.896;2022-12-07T01:50:26;101673.28;;;5.43;80.37
46942;BME280;32676;52.630;4.896;2022-12-07T01:52:56;101672.38;;;5.44;80.28
46942;BME280;32676;52.630;4.896;2022-12-07T01:55:26;101663.72;;;5.38;80.30
46942;BME280;32676;52.630;4.896;2022-12-07T01:57:54;101660.25;;;5.43;80.30
46942;BME280;32676;52.630;4.896;2022-12-07T02:00:22;101640.25;;;5.38;80.20
46942;BME280;32676;52.630;4.896;2022-12-07T02:02:53;101625.44;;;5.33;80.17
46942;BME280;32676;52.630;4.896;2022-12-07T02:05:24;101616.75;;;5.31;80.31
46942;BME280;32676;52.630;4.896;2022-12-07T02:07:53;101596.78;;;5.25;80.37
46942;BME280;32676;52.630;4.896;2022-12-07T02:10:23;101569.84;;;5.18;80.32
46942;BME280;32676;52.630;4.896;2022-12-07T02:12:55;101530.75;;;5.11;80.51
46942;BME280;32676;52.630;4.896;2022-12-07T02:15:27;101501.22;;;5.03;80.54
46942;BME280;32676;52.630;4.896;2022-12-07T02:18:01;101472.59;;;4.95;80.68
46942;BME280;32676;52.630;4.896;2022-12-07T02:20:38;101427.41;;;4.85;80.87
46942;BME280;32676;52.630;4.896;2022-12-07T02:29:18;101400.50;;;4.77;81.28
46942;BME280;32676;52.630;4.896;2022-12-07T02:31:53;101414.41;;;4.82;81.21
46942;BME280;32676;52.630;4.896;2022-12-07T02:34:29;101398.78;;;4.79;81.38
46942;BME280;32676;52.630;4.896;2022-12-07T02:37:00;101416.13;;;4.83;81.37
46942;BME280;32676;52.630;4.896;2022-12-07T02:39:34;101424.81;;;4.85;81.41
46942;BME280;32676;52.630;4.896;2022-12-07T02:42:11;101432.63;;;4.87;81.37
46942;BME280;32676;52.630;4.896;2022-12-07T02:44:41;101440.44;;;4.88;81.25
46942;BME280;32676;52.630;4.896;2022-12-07T02:47:11;101449.13;;;4.90;81.20
46942;BME280;32676;52.630;4.896;2022-12-07T02:49:40;101456.06;;;4.91;81.20
46942;BME280;32676;52.630;4.896;2022-12-07T02:52:06;101456.06;;;4.91;81.13
46942;BME280;32676;52.630;4.896;2022-12-07T02:54:33;101466.47;;;4.93;81.00
46942;BME280;32676;52.630;4.896;2022-12-07T02:57:05;101464.75;;;4.93;80.79
46942;BME280;32676;52.630;4.896;2022-12-07T02:59:48;101466.47;;;4.94;80.30
46942;BME280;32676;52.630;4.896;2022-12-07T03:02:25;101475.16;;;4.96;79.89
46942;BME280;32676;52.630;4.896;2022-12-07T03:05:08;101493.41;;;4.99;79.24
46942;BME280;32676;52.630;4.896;2022-12-07T03:07:43;101502.97;;;5.00;78.61
46942;BME280;32676;52.630;4.896;2022-12-07T03:10:19;101538.56;;;5.12;78.01
46942;BME280;32676;52.630;4.896;2022-12-07T03:12:54;101555.06;;;5.16;77.67
46942;BME280;32676;52.630;4.896;2022-12-07T03:15:27;101567.22;;;5.20;77.09
46942;BME280;32676;52.630;4.896;2022-12-07T03:17:57;101574.19;;;5.19;76.72
46942;BME280;32676;52.630;4.896;2022-12-07T03:20:26;101591.56;;;5.25;76.63
46942;BME280;32676;52.630;4.896;2022-12-07T03:22:54;101604.59;;;5.28;76.15
46942;BME280;32676;52.630;4.896;2022-12-07T03:25:23;101610.69;;;5.30;76.05
46942;BME280;32676;52.630;4.896;2022-12-07T03:27:54;101616.75;;;5.31;75.63
46942;BME280;32676;52.630;4.896;2022-12-07T03:30:23;101615.91;;;5.30;75.62
46942;BME280;32676;52.630;4.896;2022-12-07T03:32:54;101605.47;;;5.30;75.51
46942;BME280;32676;52.630;4.896;2022-12-07T03:35:27;101608.94;;;5.29;75.53
46942;BME280;32676;52.630;4.896;2022-12-07T03:37:59;101603.72;;;5.29;75.42
46942;BME280;32676;52.630;4.896;2022-12-07T03:40:31;101602.00;;;5.28;75.51
46942;BME280;32676;52.630;4.896;2022-12-07T03:42:59;101600.25;;;5.27;75.75
46942;BME280;32676;52.630;4.896;2022-12-07T03:45:32;101579.41;;;5.24;75.87
46942;BME280;32676;52.630;4.896;2022-12-07T03:48:07;101568.97;;;5.21;76.26
46942;BME280;32676;52.630;4.896;2022-12-07T03:50:38;101551.63;;;5.17;76.45
46942;BME280;32676;52.630;4.896;2022-12-07T03:53:11;101546.41;;;5.14;76.35
46942;BME280;32676;52.630;4.896;2022-12-07T03:55:42;101542.03;;;5.08;76.69
46942;BME280;32676;52.630;4.896;2022-12-07T03:58:11;101546.41;;;5.14;77.06
46942;BME280;32676;52.630;4.896;2022-12-07T04:00:40;101555.06;;;5.16;77.01
46942;BME280;32676;52.630;4.896;2022-12-07T04:03:08;101567.22;;;5.20;77.08
46942;BME280;32676;52.630;4.896;2022-12-07T04:05:35;101567.22;;;5.20;77.06
46942;BME280;32676;52.630;4.896;2022-12-07T04:08:02;101572.44;;;5.20;77.33
46942;BME280;32676;52.630;4.896;2022-12-07T04:10:29;101572.44;;;5.22;77.26
46942;BME280;32676;52.630;4.896;2022-12-07T04:12:56;101577.66;;;5.23;77.25
46942;BME280;32676;52.630;4.896;2022-12-07T04:15:23;101590.69;;;5.25;77.14
46942;BME280;32676;52.630;4.896;2022-12-07T04:17:49;101587.25;;;5.26;77.04
46942;BME280;32676;52.630;4.896;2022-12-07T04:20:18;101577.66;;;5.23;76.89
46942;BME280;32676;52.630;4.896;2022-12-07T04:22:44;101568.13;;;5.21;76.74
46942;BME280;32676;52.630;4.896;2022-12-07T04:25:11;101572.47;;;5.23;76.63
46942;BME280;32676;52.630;4.896;2022-12-07T04:27:38;101566.38;;;5.21;76.62
46942;BME280;32676;52.630;4.896;2022-12-07T04:30:06;101569.84;;;5.23;76.44
46942;BME280;32676;52.630;4.896;2022-12-07T04:32:32;101582.88;;;5.23;76.46
46942;BME280;32676;52.630;4.896;2022-12-07T04:34:59;101580.28;;;5.23;76.53
46942;BME280;32676;52.630;4.896;2022-12-07T04:37:27;101584.63;;;5.24;76.48
46942;BME280;32676;52.630;4.896;2022-12-07T04:39:53;101584.63;;;5.24;76.70
46942;BME280;32676;52.630;4.896;2022-12-07T04:42:20;101563.78;;;5.21;76.87
46942;BME280;32676;52.630;4.896;2022-12-07T04:44:46;101560.31;;;5.19;76.82
46942;BME280;32676;52.630;4.896;2022-12-07T04:47:12;101561.16;;;5.18;77.03
46942;BME280;32676;52.630;4.896;2022-12-07T04:49:39;101559.44;;;5.18;77.08
46942;BME280;32676;52.630;4.896;2022-12-07T04:52:05;101557.69;;;5.17;77.05
46942;BME280;32676;52.630;4.896;2022-12-07T04:54:34;101541.19;;;5.15;77.05
46942;BME280;32676;52.630;4.896;2022-12-07T04:57:01;101545.53;;;5.15;77.09
46942;BME280;32676;52.630;4.896;2022-12-07T04:59:27;101556.81;;;5.17;77.12
46942;BME280;32676;52.630;4.896;2022-12-07T05:01:53;101568.97;;;5.18;77.11
46942;BME280;32676;52.630;4.896;2022-12-07T05:04:20;101575.06;;;5.23;77.13
46942;BME280;32676;52.630;4.896;2022-12-07T05:06:46;101588.09;;;5.26;77.48
46942;BME280;32676;52.630;4.896;2022-12-07T05:09:13;101598.50;;;5.29;77.34
46942;BME280;32676;52.630;4.896;2022-12-07T05:11:41;101609.81;;;5.30;77.50
46942;BME280;32676;52.630;4.896;2022-12-07T05:14:11;101612.44;;;5.31;77.71
46942;BME280;32676;52.630;4.896;2022-12-07T05:16:38;101620.22;;;5.33;78.18
46942;BME280;32676;52.630;4.896;2022-12-07T05:19:06;101615.91;;;5.32;78.65
46942;BME280;32676;52.630;4.896;2022-12-07T05:21:33;101608.09;;;5.30;79.12
46942;BME280;32676;52.630;4.896;2022-12-07T05:23:59;101598.50;;;5.29;79.36
46942;BME280;32676;52.630;4.896;2022-12-07T05:26:27;101602.88;;;5.29;79.80
46942;BME280;32676;52.630;4.896;2022-12-07T05:28:57;101578.53;;;5.25;79.91
46942;BME280;32676;52.630;4.896;2022-12-07T05:31:24;101560.28;;;5.13;80.10
46942;BME280;32676;52.630;4.896;2022-12-07T05:33:51;101567.22;;;5.20;80.17
46942;BME280;32676;52.630;4.896;2022-12-07T05:36:18;101557.69;;;5.19;80.11
46942;BME280;32676;52.630;4.896;2022-12-07T05:38:45;101556.81;;;5.17;80.14
46942;BME280;32676;52.630;4.896;2022-12-07T05:41:14;101544.66;;;5.14;80.25
46942;BME280;32676;52.630;4.896;2022-12-07T05:43:56;101527.28;;;5.12;80.24
46942;BME280;32676;52.630;4.896;2022-12-07T05:46:22;101520.34;;;5.08;80.01
46942;BME280;32676;52.630;4.896;2022-12-07T05:48:49;101501.22;;;4.99;80.20
46942;BME280;32676;52.630;4.896;2022-12-07T05:51:15;101499.50;;;5.03;80.15
46942;BME280;32676;52.630;4.896;2022-12-07T05:53:42;101489.06;;;5.02;80.07
46942;BME280;32676;52.630;4.896;2022-12-07T05:56:08;101490.78;;;4.99;79.83
46942;BME280;32676;52.630;4.896;2022-12-07T05:58:35;101494.28;;;5.02;79.52
46942;BME280;32676;52.630;4.896;2022-12-07T06:01:20;101519.44;;;5.07;79.61
46942;BME280;32676;52.630;4.896;2022-12-07T06:03:47;101523.81;;;5.10;79.33
46942;BME280;32676;52.630;4.896;2022-12-07T06:06:13;101546.41;;;5.14;79.10
46942;BME280;32676;52.630;4.896;2022-12-07T06:08:39;101547.25;;;5.14;78.84
46942;BME280;32676;52.630;4.896;2022-12-07T06:11:07;101562.03;;;5.20;78.46
46942;BME280;32676;52.630;4.896;2022-12-07T06:14:00;101568.97;;;5.21;78.06
46942;BME280;32676;52.630;4.896;2022-12-07T06:16:28;101573.34;;;5.22;77.54
46942;BME280;32676;52.630;4.896;2022-12-07T06:18:54;101569.84;;;5.23;77.04
46942;BME280;32676;52.630;4.896;2022-12-07T06:21:22;101562.03;;;5.20;76.76
46942;BME280;32676;52.630;4.896;2022-12-07T06:23:50;101564.66;;;5.17;76.41
46942;BME280;32676;52.630;4.896;2022-12-07T06:26:18;101558.53;;;5.18;76.18
46942;BME280;32676;52.630;4.896;2022-12-07T06:28:45;101551.63;;;5.18;76.13
46942;BME280;32676;52.630;4.896;2022-12-07T06:31:11;101548.16;;;5.15;76.27
46942;BME280;32676;52.630;4.896;2022-12-07T06:33:40;101542.94;;;5.15;76.38
46942;BME280;32676;52.630;4.896;2022-12-07T06:36:08;101529.00;;;5.07;76.61
46942;BME280;32676;52.630;4.896;2022-12-07T06:38:35;101507.31;;;5.06;76.69
46942;BME280;32676;52.630;4.896;2022-12-07T06:41:01;101482.97;;;4.99;76.83
46942;BME280;32676;52.630;4.896;2022-12-07T06:43:29;101468.25;;;4.97;77.09
46942;BME280;32676;52.630;4.896;2022-12-07T06:45:55;101478.66;;;4.98;77.19
46942;BME280;32676;52.630;4.896;2022-12-07T06:48:22;101494.28;;;5.02;77.30
46942;BME280;32676;52.630;4.896;2022-12-07T06:50:50;101486.47;;;5.02;77.22
46942;BME280;32676;52.630;4.896;2022-12-07T06:53:16;101482.13;;;5.00;77.78
46942;BME280;32676;52.630;4.896;2022-12-07T06:55:43;101471.69;;;4.97;78.64
46942;BME280;32676;52.630;4.896;2022-12-07T06:58:10;101475.16;;;4.96;79.19
46942;BME280;32676;52.630;4.896;2022-12-07T07:00:37;101465.63;;;4.95;79.61
46942;BME280;32676;52.630;4.896;2022-12-07T07:03:03;101482.97;;;4.99;79.88
46942;BME280;32676;52.630;4.896;2022-12-07T07:05:30;101487.34;;;5.00;80.10
46942;BME280;32676;52.630;4.896;2022-12-07T07:07:57;101482.13;;;4.97;79.97
46942;BME280;32676;52.630;4.896;2022-12-07T07:10:24;101487.34;;;5.00;79.94
46942;BME280;32676;52.630;4.896;2022-12-07T07:12:50;101492.56;;;5.02;79.86
46942;BME280;32676;52.630;4.896;2022-12-07T07:15:17;101491.66;;;5.00;79.54
46942;BME280;32676;52.630;4.896;2022-12-07T07:17:43;101479.53;;;4.99;79.80
46942;BME280;32676;52.630;4.896;2022-12-07T07:20:11;101487.34;;;5.00;79.51
46942;BME280;32676;52.630;4.896;2022-12-07T07:22:37;101476.06;;;4.97;79.25
46942;BME280;32676;52.630;4.896;2022-12-07T07:25:07;101463.88;;;4.94;79.69
46942;BME280;32676;52.630;4.896;2022-12-07T07:27:33;101447.38;;;4.92;79.77
46942;BME280;32676;52.630;4.896;2022-12-07T07:30:01;101447.38;;;4.92;80.04
46942;BME280;32676;52.630;4.896;2022-12-07T07:32:27;101439.56;;;4.91;80.30
46942;BME280;32676;52.630;4.896;2022-12-07T07:34:55;101426.56;;;4.86;80.29
46942;BME280;32676;52.630;4.896;2022-12-07T07:37:21;101412.66;;;4.84;80.40
46942;BME280;32676;52.630;4.896;2022-12-07T07:39:48;101425.66;;;4.86;80.64
46942;BME280;32676;52.630;4.896;2022-12-07T07:42:16;101417.88;;;4.84;80.79
46942;BME280;32676;52.630;4.896;2022-12-07T07:44:42;101391.81;;;4.78;81.10
46942;BME280;32676;52.630;4.896;2022-12-07T07:47:08;101371.00;;;4.69;81.61
46942;BME280;32676;52.630;4.896;2022-12-07T07:49:35;101374.47;;;4.74;82.08
46942;BME280;32676;52.630;4.896;2022-12-07T07:52:01;101363.19;;;4.72;82.54
46942;BME280;32676;52.630;4.896;2022-12-07T07:54:28;101364.03;;;4.71;82.75
46942;BME280;32676;52.630;4.896;2022-12-07T07:56:55;101352.78;;;4.61;83.25
46942;BME280;32676;52.630;4.896;2022-12-07T07:59:23;101367.50;;;4.73;83.33
46942;BME280;32676;52.630;4.896;2022-12-07T08:01:49;101381.44;;;4.75;83.71
46942;BME280;32676;52.630;4.896;2022-12-07T08:04:16;101386.59;;;4.76;83.93
46942;BME280;32676;52.630;4.896;2022-12-07T08:06:43;101402.25;;;4.81;84.01
46942;BME280;32676;52.630;4.896;2022-12-07T08:09:10;101407.47;;;4.81;84.14
46942;BME280;32676;52.630;4.896;2022-12-07T08:11:36;101411.78;;;4.84;83.78
46942;BME280;32676;52.630;4.896;2022-12-07T08:14:03;101427.41;;;4.85;83.60
46942;BME280;32676;52.630;4.896;2022-12-07T08:16:31;101459.56;;;4.93;83.27
46942;BME280;32676;52.630;4.896;2022-12-07T08:18:58;101487.34;;;5.00;82.72
46942;BME280;32676;52.630;4.896;2022-12-07T08:21:24;101592.44;;;5.27;82.48
46942;BME280;32676;52.630;4.896;2022-12-07T08:23:50;101600.25;;;5.27;83.17
46942;BME280;32676;52.630;4.896;2022-12-07T08:26:17;101626.34;;;5.33;82.23
46942;BME280;32676;52.630;4.896;2022-12-07T08:28:43;101648.94;;;5.41;81.48
46942;BME280;32676;52.630;4.896;2022-12-07T08:31:12;101661.97;;;5.44;80.96
46942;BME280;32676;52.630;4.896;2022-12-07T08:33:40;101668.06;;;5.46;80.60
46942;BME280;32676;52.630;4.896;2022-12-07T08:36:09;101676.75;;;5.48;80.60
46942;BME280;32676;52.630;4.896;2022-12-07T08:38:38;101675.00;;;5.47;80.29
46942;BME280;32676;52.630;4.896;2022-12-07T08:41:05;101689.78;;;5.49;80.40
46942;BME280;32676;52.630;4.896;2022-12-07T08:43:32;101693.28;;;5.51;80.35
46942;BME280;32676;52.630;4.896;2022-12-07T08:46:05;101702.84;;;5.54;80.52
46942;BME280;32676;52.630;4.896;2022-12-07T08:48:33;101716.75;;;5.57;80.66
46942;BME280;32676;52.630;4.896;2022-12-07T08:51:03;101728.91;;;5.60;80.68
46942;BME280;32676;52.630;4.896;2022-12-07T08:53:29;101728.91;;;5.60;80.72
46942;BME280;32676;52.630;4.896;2022-12-07T08:55:56;101731.50;;;5.60;80.72
46942;BME280;32676;52.630;4.896;2022-12-07T08:58:23;101746.31;;;5.64;80.38
46942;BME280;32676;52.630;4.896;2022-12-07T09:00:49;101760.25;;;5.68;79.98
46942;BME280;32676;52.630;4.896;2022-12-07T09:03:16;101766.31;;;5.68;79.92
46942;BME280;32676;52.630;4.896;2022-12-07T09:05:42;101778.47;;;5.71;79.46
46942;BME280;32676;52.630;4.896;2022-12-07T09:08:10;101766.31;;;5.68;79.41
46942;BME280;32676;52.630;4.896;2022-12-07T09:10:37;101765.47;;;5.68;79.06
46942;BME280;32676;52.630;4.896;2022-12-07T09:13:03;101763.72;;;5.68;78.94
46942;BME280;32676;52.630;4.896;2022-12-07T09:15:30;101770.66;;;5.69;78.98
46942;BME280;32676;52.630;4.896;2022-12-07T09:17:57;101796.75;;;5.72;79.02
46942;BME280;32676;52.630;4.896;2022-12-07T09:20:23;101830.69;;;5.83;79.38
46942;BME280;32676;52.630;4.896;2022-12-07T09:22:50;101855.94;;;5.86;79.38
46942;BME280;32676;52.630;4.896;2022-12-07T09:25:17;101899.47;;;5.99;79.78
46942;BME280;32676;52.630;4.896;2022-12-07T09:27:44;101922.97;;;6.04;79.99
46942;BME280;32676;52.630;4.896;2022-12-07T09:30:10;101963.91;;;6.15;80.02
46942;BME280;32676;52.630;4.896;2022-12-07T09:32:37;101990.03;;;6.22;80.18
46942;BME280;32676;52.630;4.896;2022-12-07T09:35:04;102029.22;;;6.29;80.05
46942;BME280;32676;52.630;4.896;2022-12-07T09:37:30;102062.31;;;6.38;79.90
46942;BME280;32676;52.630;4.896;2022-12-07T09:40:00;102084.97;;;6.41;79.56
46942;BME280;32676;52.630;4.896;2022-12-07T09:42:31;102101.53;;;6.44;79.12
46942;BME280;32676;52.630;4.896;2022-12-07T09:44:59;102140.75;;;6.58;78.78
46942;BME280;32676;52.630;4.896;2022-12-07T09:47:26;102159.06;;;6.63;78.70
46942;BME280;32676;52.630;4.896;2022-12-07T09:49:54;102183.47;;;6.68;78.72
46942;BME280;32676;52.630;4.896;2022-12-07T09:52:27;102209.63;;;6.74;78.49
46942;BME280;32676;52.630;4.896;2022-12-07T09:54:54;102221.84;;;6.78;78.27
46942;BME280;32676;52.630;4.896;2022-12-07T09:57:25;102265.44;;;6.88;77.86
46942;BME280;32676;52.630;4.896;2022-12-07T09:59:55;102310.78;;;6.97;77.64
46942;BME280;32676;52.630;4.896;2022-12-07T10:02:34;102350.97;;;7.08;77.53
46942;BME280;32676;52.630;4.896;2022-12-07T10:05:04;102386.72;;;7.18;77.37
46942;BME280;32676;52.630;4.896;2022-12-07T10:07:30;102419.91;;;7.25;77.15
46942;BME280;32676;52.630;4.896;2022-12-07T10:09:57;102434.78;;;7.29;76.73
46942;BME280;32676;52.630;4.896;2022-12-07T10:12:24;102467.91;;;7.37;76.16
46942;BME280;32676;52.630;4.896;2022-12-07T10:14:59;102460.06;;;7.34;75.81
46942;BME280;32676;52.630;4.896;2022-12-07T10:17:33;102439.13;;;7.32;75.10
46942;BME280;32676;52.630;4.896;2022-12-07T10:20:21;102429.50;;;7.26;74.24
46942;BME280;32676;52.630;4.896;2022-12-07T10:23:13;102412.94;;;7.24;73.66
46942;BME280;32676;52.630;4.896;2022-12-07T10:25:40;102417.28;;;7.25;73.22
46942;BME280;32676;52.630;4.896;2022-12-07T10:28:13;102433.88;;;7.29;72.98
46942;BME280;32676;52.630;4.896;2022-12-07T10:30:54;102453.97;;;7.32;72.98
46942;BME280;32676;52.630;4.896;2022-12-07T10:33:31;102483.66;;;7.41;73.18
46942;BME280;32676;52.630;4.896;2022-12-07T10:35:59;102490.66;;;7.42;72.76
46942;BME280;32676;52.630;4.896;2022-12-07T10:38:26;102530.81;;;7.52;73.00
46942;BME280;32676;52.630;4.896;2022-12-07T10:41:05;102555.28;;;7.57;73.17
46942;BME280;32676;52.630;4.896;2022-12-07T10:43:33;102591.97;;;7.66;73.15
46942;BME280;32676;52.630;4.896;2022-12-07T10:46:20;102618.19;;;7.73;72.80
46942;BME280;32676;52.630;4.896;2022-12-07T10:48:55;102655.78;;;7.81;72.40
46942;BME280;32676;52.630;4.896;2022-12-07T10:51:28;102689.00;;;7.91;72.19
46942;BME280;32676;52.630;4.896;2022-12-07T10:54:10;102717.88;;;7.97;72.15
46942;BME280;32676;52.630;4.896;2022-12-07T10:56:54;102740.59;;;8.01;72.20
46942;BME280;32676;52.630;4.896;2022-12-07T10:59:42;102756.34;;;8.07;72.21
46942;BME280;32676;52.630;4.896;2022-12-07T11:02:24;102745.84;;;8.03;72.11
46942;BME280;32676;52.630;4.896;2022-12-07T11:05:01;102727.47;;;8.00;71.55
46942;BME280;32676;52.630;4.896;2022-12-07T11:07:40;102711.75;;;7.97;71.06
46942;BME280;32676;52.630;4.896;2022-12-07T11:10:15;102689.00;;;7.91;70.62
46942;BME280;32676;52.630;4.896;2022-12-07T11:12:56;102651.44;;;7.83;70.58
46942;BME280;32676;52.630;4.896;2022-12-07T11:15:29;102640.94;;;7.80;70.80
46942;BME280;32676;52.630;4.896;2022-12-07T11:18:06;102613.84;;;7.76;70.97
46942;BME280;32676;52.630;4.896;2022-12-07T11:20:41;102586.75;;;7.68;70.98
46942;BME280;32676;52.630;4.896;2022-12-07T11:23:18;102585.00;;;7.68;70.78
46942;BME280;32676;52.630;4.896;2022-12-07T11:25:53;102600.75;;;7.72;70.82
46942;BME280;32676;52.630;4.896;2022-12-07T11:28:31;102602.47;;;7.69;70.91
46942;BME280;32676;52.630;4.896;2022-12-07T11:31:12;102626.09;;;7.79;71.17
46942;BME280;32676;52.630;4.896;2022-12-07T11:33:48;102637.38;;;7.75;71.48
46942;BME280;32676;52.630;4.896;2022-12-07T11:36:31;102661.94;;;7.86;71.57
46942;BME280;32676;52.630;4.896;2022-12-07T11:39:02;102689.91;;;7.93;71.38
46942;BME280;32676;52.630;4.896;2022-12-07T11:41:34;102717.88;;;8.00;71.17
46942;BME280;32676;52.630;4.896;2022-12-07T11:44:05;102731.00;;;8.03;70.92
46942;BME280;32676;52.630;4.896;2022-12-07T11:46:43;102749.38;;;8.06;71.16
46942;BME280;32676;52.630;4.896;2022-12-07T11:49:19;102761.63;;;8.11;71.41
46942;BME280;32676;52.630;4.896;2022-12-07T11:51:49;102766.88;;;8.12;71.53
46942;BME280;32676;52.630;4.896;2022-12-07T11:54:20;102759.00;;;8.11;71.72
46942;BME280;32676;52.630;4.896;2022-12-07T11:56:49;102723.16;;;8.03;71.92
46942;BME280;32676;52.630;4.896;2022-12-07T11:59:20;102719.63;;;8.01;71.41
46942;BME280;32676;52.630;4.896;2022-12-07T12:01:54;102684.66;;;7.90;71.84
46942;BME280;32676;52.630;4.896;2022-12-07T12:04:39;102672.41;;;7.89;72.16
46942;BME280;32676;52.630;4.896;2022-12-07T12:07:11;102616.50;;;7.78;72.46
46942;BME280;32676;52.630;4.896;2022-12-07T12:09:48;102539.59;;;7.60;72.61
46942;BME280;32676;52.630;4.896;2022-12-07T12:12:39;102491.56;;;7.46;72.69
46942;BME280;32676;52.630;4.896;2022-12-07T12:15:18;102441.75;;;7.37;73.05
46942;BME280;32676;52.630;4.896;2022-12-07T12:20:51;102392.88;;;7.23;74.00
46942;BME280;32676;52.630;4.896;2022-12-07T12:23:22;102376.28;;;7.20;74.00
46942;BME280;32676;52.630;4.896;2022-12-07T12:25:51;102364.97;;;7.19;74.19
46942;BME280;32676;52.630;4.896;2022-12-07T12:28:23;102348.38;;;7.16;74.17
46942;BME280;32676;52.630;4.896;2022-12-07T12:31:06;102346.63;;;7.15;74.54
46942;BME280;32676;52.630;4.896;2022-12-07T12:33:35;102347.53;;;7.15;74.71
46942;BME280;32676;52.630;4.896;2022-12-07T12:36:19;102352.75;;;7.15;74.55
46942;BME280;32676;52.630;4.896;2022-12-07T12:39:07;102357.09;;;7.18;74.35
46942;BME280;32676;52.630;4.896;2022-12-07T12:41:52;102357.97;;;7.18;74.03
46942;BME280;32676;52.630;4.896;2022-12-07T12:47:58;102378.94;;;7.23;73.34
46942;BME280;32676;52.630;4.896;2022-12-07T12:50:30;102405.13;;;7.32;73.64
46942;BME280;32676;52.630;4.896;2022-12-07T12:53:14;102457.50;;;7.41;73.99
46942;BME280;32676;52.630;4.896;2022-12-07T12:56:11;102492.44;;;7.51;74.64
46942;BME280;32676;52.630;4.896;2022-12-07T12:58:46;102517.78;;;7.57;74.65
46942;BME280;32676;52.630;4.896;2022-12-07T13:01:43;102551.84;;;7.64;74.15
46942;BME280;32676;52.630;4.896;2022-12-07T13:04:34;102571.09;;;7.69;73.70
46942;BME280;32676;52.630;4.896;2022-12-07T13:07:03;102594.66;;;7.76;73.34
46942;BME280;32676;52.630;4.896;2022-12-07T13:09:34;102613.03;;;7.79;72.99
46942;BME280;32676;52.630;4.896;2022-12-07T13:12:03;102611.28;;;7.81;72.66
46942;BME280;32676;52.630;4.896;2022-12-07T13:14:52;102635.72;;;7.83;71.87
46942;BME280;32676;52.630;4.896;2022-12-07T13:20:40;102633.13;;;7.84;70.89
46942;BME280;32676;52.630;4.896;2022-12-07T13:23:07;102629.59;;;7.84;70.48
46942;BME280;32676;52.630;4.896;2022-12-07T13:25:45;102610.38;;;7.80;70.36
46942;BME280;32676;52.630;4.896;2022-12-07T13:28:16;102582.44;;;7.73;70.42
46942;BME280;32676;52.630;4.896;2022-12-07T13:30:58;102567.59;;;7.71;70.55
46942;BME280;32676;52.630;4.896;2022-12-07T13:33:29;102551.84;;;7.67;70.74
46942;BME280;32676;52.630;4.896;2022-12-07T13:35:56;102554.47;;;7.66;71.05